createdAt,value
2019-05-14T00:00:32.500Z,11.31
2019-05-14T00:02:59.511Z,11.29
2019-05-14T00:05:26.206Z,11.30
2019-05-14T00:07:52.945Z,11.12
2019-05-14T00:10:21.729Z,10.99
2019-05-14T00:12:48.346Z,10.83
2019-05-14T00:15:15.312Z,10.76
2019-05-14T00:17:41.991Z,10.87
2019-05-14T00:20:10.064Z,10.84
2019-05-14T00:22:37.640Z,10.86
2019-05-14T00:25:04.818Z,10.89
2019-05-14T00:27:31.555Z,10.86
2019-05-14T00:29:58.283Z,10.90
2019-05-14T00:32:25.023Z,10.83
2019-05-14T00:34:51.838Z,10.91
2019-05-14T00:37:18.782Z,10.77
2019-05-14T00:39:45.441Z,10.76
2019-05-14T00:42:12.706Z,10.72
2019-05-14T00:44:51.510Z,10.77
2019-05-14T00:47:08.319Z,10.73
2019-05-14T00:49:35.082Z,10.80
2019-05-14T00:52:02.423Z,10.76
2019-05-14T00:54:29.320Z,10.83
2019-05-14T00:56:56.242Z,10.84
2019-05-14T00:59:22.961Z,10.89
2019-05-14T01:01:51.612Z,10.87
2019-05-14T01:04:18.237Z,10.86
2019-05-14T01:06:45.046Z,10.82
2019-05-14T01:09:11.761Z,10.90
2019-05-14T01:11:38.727Z,10.91
2019-05-14T01:14:06.638Z,10.90
2019-05-14T01:16:33.337Z,10.93
2019-05-14T01:19:02.059Z,10.91
2019-05-14T01:21:31.043Z,10.93
2019-05-14T01:23:57.280Z,11.02
2019-05-14T01:26:23.970Z,11.01
2019-05-14T01:28:51.493Z,11.01
2019-05-14T01:31:21.941Z,10.95
2019-05-14T01:33:48.844Z,10.95
2019-05-14T01:36:15.603Z,10.95
2019-05-14T01:38:42.292Z,10.98
2019-05-14T01:41:08.961Z,11.05
2019-05-14T01:43:35.701Z,10.99
2019-05-14T01:46:02.378Z,10.98
2019-05-14T01:48:31.116Z,11.00
2019-05-14T01:50:57.854Z,10.91
2019-05-14T01:53:24.549Z,10.88
2019-05-14T01:55:52.011Z,10.91
2019-05-14T01:58:19.314Z,10.91
2019-05-14T02:00:46.182Z,10.76
2019-05-14T02:03:12.890Z,10.81
2019-05-14T02:05:41.593Z,10.91
2019-05-14T02:08:08.285Z,10.81
2019-05-14T02:10:34.959Z,10.71
2019-05-14T02:15:37.096Z,10.65
2019-05-14T02:17:56.322Z,10.64
2019-05-14T02:20:22.997Z,10.71
2019-05-14T02:22:52.273Z,10.57
2019-05-14T02:25:18.362Z,10.53
2019-05-14T02:27:45.044Z,10.46
2019-05-14T02:30:12.185Z,10.34
2019-05-14T02:32:40.470Z,10.31
2019-05-14T02:35:09.943Z,10.24
2019-05-14T02:37:39.263Z,10.25
2019-05-14T02:40:05.977Z,10.27
2019-05-14T02:42:32.878Z,10.24
2019-05-14T02:44:59.672Z,10.19
2019-05-14T02:47:29.643Z,10.14
2019-05-14T02:49:55.177Z,10.09
2019-05-14T02:52:21.928Z,10.15
2019-05-14T02:54:49.639Z,10.08
2019-05-14T02:57:19.724Z,10.10
2019-05-14T02:59:45.704Z,9.94
2019-05-14T03:02:12.530Z,9.99
2019-05-14T03:04:39.951Z,10.04
2019-05-14T03:07:10.821Z,10.02
2019-05-14T03:09:40.362Z,10.01
2019-05-14T03:12:05.987Z,10.04
2019-05-14T03:14:32.949Z,10.03
2019-05-14T03:16:59.978Z,10.00
2019-05-14T03:19:29.597Z,10.08
2019-05-14T03:21:55.621Z,10.08
2019-05-14T03:24:22.283Z,10.18
2019-05-14T03:26:49.966Z,10.13
2019-05-14T03:29:19.640Z,10.25
2019-05-14T03:31:51.908Z,10.27
2019-05-14T03:34:15.532Z,10.33
2019-05-14T03:36:44.119Z,10.36
2019-05-14T03:39:11.127Z,10.37
2019-05-14T03:41:39.599Z,10.24
2019-05-14T03:44:09.754Z,10.27
2019-05-14T03:46:45.922Z,10.19
2019-05-14T03:49:04.231Z,10.25
2019-05-14T03:51:31.981Z,10.32
2019-05-14T03:54:06.671Z,10.39
2019-05-14T03:56:29.878Z,10.44
2019-05-14T03:58:59.658Z,10.43
2019-05-14T04:01:25.240Z,10.36
2019-05-14T04:03:52.530Z,10.39
2019-05-14T04:06:20.504Z,10.50
2019-05-14T04:08:49.684Z,10.50
2019-05-14T04:11:20.134Z,10.58
2019-05-14T04:13:50.275Z,10.62
2019-05-14T04:16:20.687Z,10.72
2019-05-14T04:18:50.478Z,10.80
2019-05-14T04:21:20.501Z,10.90
2019-05-14T04:23:50.833Z,10.93
2019-05-14T04:26:20.029Z,10.91
2019-05-14T04:28:49.831Z,10.99
2019-05-14T04:31:19.317Z,10.99
2019-05-14T04:33:50.144Z,11.16
2019-05-14T04:36:19.594Z,11.19
2019-05-14T04:38:51.462Z,11.30
2019-05-14T04:41:15.060Z,11.41
2019-05-14T04:43:41.857Z,11.49
2019-05-14T04:46:10.408Z,11.38
2019-05-14T04:48:42.516Z,11.61
2019-05-14T04:51:09.566Z,11.70
2019-05-14T04:53:34.485Z,11.74
2019-05-14T04:56:01.288Z,11.79
2019-05-14T04:58:29.694Z,11.57
2019-05-14T05:01:00.127Z,11.51
2019-05-14T05:03:25.492Z,11.55
2019-05-14T05:05:52.160Z,11.67
2019-05-14T05:08:19.866Z,11.76
2019-05-14T05:10:49.493Z,12.15
2019-05-14T05:13:18.436Z,12.47
2019-05-14T05:15:45.102Z,12.52
2019-05-14T05:18:11.783Z,12.96
2019-05-14T05:20:39.453Z,13.46
2019-05-14T05:23:08.396Z,13.53
2019-05-14T05:25:35.069Z,13.77
2019-05-14T05:28:01.873Z,13.90
2019-05-14T05:30:29.513Z,14.20
2019-05-14T05:32:56.417Z,14.48
2019-05-14T05:35:23.102Z,14.49
2019-05-14T05:37:49.842Z,14.41
2019-05-14T05:40:19.476Z,14.40
2019-05-14T05:42:48.827Z,14.35
2019-05-14T05:45:15.516Z,14.66
2019-05-14T05:47:54.357Z,14.42
2019-05-14T05:50:11.140Z,14.43
2019-05-14T05:52:38.797Z,14.35
2019-05-14T05:55:08.875Z,14.53
2019-05-14T06:00:09.456Z,14.60
2019-05-14T06:02:36.285Z,14.73
2019-05-14T06:05:04.066Z,14.80
2019-05-14T06:07:30.819Z,14.77
2019-05-14T06:09:58.810Z,14.85
2019-05-14T06:12:25.833Z,14.94
2019-05-14T06:14:52.631Z,14.71
2019-05-14T06:17:19.426Z,14.67
2019-05-14T06:19:48.444Z,14.69
2019-05-14T06:22:14.782Z,14.58
2019-05-14T06:24:41.462Z,14.50
2019-05-14T06:27:09.355Z,14.43
2019-05-14T06:29:38.307Z,14.38
2019-05-14T06:32:05.135Z,14.42
2019-05-14T06:34:31.811Z,14.50
2019-05-14T06:36:59.295Z,14.54
2019-05-14T06:39:28.232Z,14.38
2019-05-14T06:41:55.191Z,14.63
2019-05-14T06:44:22.026Z,14.67
2019-05-14T06:46:52.692Z,14.57
2019-05-14T06:49:19.666Z,14.72
2019-05-14T06:51:48.840Z,14.84
2019-05-14T06:54:15.441Z,14.93
2019-05-14T06:56:42.149Z,15.07
2019-05-14T06:59:09.181Z,15.25
2019-05-14T07:01:38.269Z,15.23
2019-05-14T07:04:04.819Z,15.29
2019-05-14T07:06:31.566Z,15.50
2019-05-14T07:08:58.982Z,15.34
2019-05-14T07:11:25.876Z,15.40
2019-05-14T07:13:52.646Z,15.37
2019-05-14T07:16:19.973Z,15.16
2019-05-14T07:18:52.964Z,15.19
2019-05-14T07:21:15.516Z,15.12
2019-05-14T07:23:42.179Z,15.13
2019-05-14T07:26:08.885Z,15.05
2019-05-14T07:28:35.643Z,14.89
2019-05-14T07:31:02.327Z,14.87
2019-05-14T07:33:29.514Z,14.99
2019-05-14T07:35:59.147Z,15.05
2019-05-14T07:38:25.182Z,15.31
2019-05-14T07:40:51.878Z,15.61
2019-05-14T07:43:18.928Z,15.95
2019-05-14T07:45:45.754Z,16.07
2019-05-14T07:48:12.712Z,16.13
2019-05-14T07:50:40.016Z,16.07
2019-05-14T07:53:09.014Z,16.08
2019-05-14T07:55:35.667Z,15.90
2019-05-14T07:58:02.665Z,15.74
2019-05-14T08:00:29.414Z,15.72
2019-05-14T08:02:58.077Z,15.55
2019-05-14T08:05:24.739Z,15.54
2019-05-14T08:07:51.713Z,15.49
2019-05-14T08:10:18.653Z,15.07
2019-05-14T08:12:45.651Z,14.98
2019-05-14T08:15:18.645Z,15.08
2019-05-14T08:17:41.501Z,15.17
2019-05-14T08:20:09.414Z,15.41
2019-05-14T08:22:38.164Z,15.62
2019-05-14T08:25:08.442Z,15.65
2019-05-14T08:27:38.923Z,15.41
2019-05-14T08:30:10.239Z,15.50
2019-05-14T08:32:39.014Z,15.40
2019-05-14T08:35:08.854Z,15.47
2019-05-14T08:37:35.820Z,15.43
2019-05-14T08:40:05.892Z,15.50
2019-05-14T08:42:34.013Z,15.82
2019-05-14T08:45:04.803Z,16.01
2019-05-14T08:47:32.051Z,16.34
2019-05-14T08:50:00.237Z,16.62
2019-05-14T08:52:28.823Z,16.72
2019-05-14T08:55:09.174Z,16.83
2019-05-14T08:57:24.451Z,17.13
2019-05-14T08:59:51.324Z,17.53
2019-05-14T09:02:19.712Z,17.53
2019-05-14T09:04:53.305Z,17.52
2019-05-14T09:07:15.590Z,17.19
2019-05-14T09:09:42.397Z,16.88
2019-05-14T09:12:12.476Z,16.85
2019-05-14T09:14:38.823Z,16.55
2019-05-14T09:17:05.812Z,16.31
2019-05-14T09:19:32.528Z,16.30
2019-05-14T09:21:59.199Z,16.30
2019-05-14T09:24:28.857Z,16.75
2019-05-14T09:26:54.644Z,16.75
2019-05-14T09:29:25.782Z,17.12
2019-05-14T09:31:50.085Z,16.99
2019-05-14T09:34:19.386Z,17.35
2019-05-14T09:36:45.441Z,17.37
2019-05-14T09:39:12.393Z,17.63
2019-05-14T09:41:39.097Z,17.48
2019-05-14T09:44:05.828Z,17.62
2019-05-14T09:46:32.217Z,17.86
2019-05-14T09:51:26.261Z,17.42
2019-05-14T09:53:52.985Z,17.18
2019-05-14T09:56:20.793Z,17.16
2019-05-14T09:58:49.508Z,17.52
2019-05-14T10:01:19.125Z,17.60
2019-05-14T10:03:45.334Z,17.69
2019-05-14T10:06:12.170Z,17.91
2019-05-14T10:08:39.253Z,17.95
2019-05-14T10:11:05.783Z,18.00
2019-05-14T10:13:33.690Z,18.14
2019-05-14T10:16:00.409Z,18.32
2019-05-14T10:18:28.508Z,18.40
2019-05-14T10:20:55.617Z,18.56
2019-05-14T10:23:22.323Z,18.52
2019-05-14T10:25:49.047Z,18.70
2019-05-14T10:28:15.874Z,18.74
2019-05-14T10:30:42.542Z,18.69
2019-05-14T10:33:14.771Z,18.27
2019-05-14T10:35:39.113Z,18.41
2019-05-14T10:38:08.749Z,18.13
2019-05-14T10:40:34.772Z,17.56
2019-05-14T10:43:01.548Z,17.66
2019-05-14T10:45:28.873Z,17.85
2019-05-14T10:47:58.470Z,17.86
2019-05-14T10:50:24.581Z,17.55
2019-05-14T10:52:51.300Z,17.24
2019-05-14T10:55:18.575Z,17.06
2019-05-14T10:57:45.601Z,16.89
2019-05-14T11:00:12.521Z,16.69
2019-05-14T11:02:39.393Z,16.69
2019-05-14T11:05:07.021Z,16.72
2019-05-14T11:07:33.727Z,16.55
2019-05-14T11:10:00.442Z,16.41
2019-05-14T11:12:29.708Z,16.38
2019-05-14T11:14:55.828Z,16.34
2019-05-14T11:17:23.389Z,16.21
2019-05-14T11:19:50.119Z,16.38
2019-05-14T11:22:18.451Z,16.51
2019-05-14T11:24:45.353Z,16.84
2019-05-14T11:27:12.104Z,17.27
2019-05-14T11:29:39.002Z,17.72
2019-05-14T11:32:05.801Z,17.73
2019-05-14T11:34:32.642Z,17.88
2019-05-14T11:36:59.334Z,18.37
2019-05-14T11:39:26.054Z,18.30
2019-05-14T11:41:52.860Z,18.18
2019-05-14T11:44:19.542Z,18.43
2019-05-14T11:46:56.368Z,18.60
2019-05-14T11:49:19.396Z,18.68
2019-05-14T11:52:00.952Z,18.67
2019-05-14T11:54:14.917Z,18.55
2019-05-14T11:56:42.116Z,18.54
2019-05-14T11:59:08.964Z,18.58
2019-05-14T12:01:35.694Z,18.57
2019-05-14T12:04:02.427Z,18.69
2019-05-14T12:06:30.472Z,18.58
2019-05-14T12:08:58.241Z,18.66
2019-05-14T12:11:25.044Z,18.64
2019-05-14T12:13:51.442Z,18.56
2019-05-14T12:16:18.134Z,18.27
2019-05-14T12:18:44.918Z,18.00
2019-05-14T12:21:11.688Z,17.70
2019-05-14T12:23:39.362Z,17.54
2019-05-14T12:26:06.194Z,17.53
2019-05-14T12:28:32.890Z,17.69
2019-05-14T12:30:59.667Z,17.82
2019-05-14T12:33:29.529Z,17.92
2019-05-14T12:35:55.017Z,17.96
2019-05-14T12:38:21.749Z,17.93
2019-05-14T12:40:48.470Z,17.72
2019-05-14T12:43:15.183Z,17.79
2019-05-14T12:45:41.849Z,17.77
2019-05-14T12:48:09.318Z,17.95
2019-05-14T12:50:38.886Z,18.11
2019-05-14T12:53:04.897Z,18.28
2019-05-14T12:55:32.761Z,18.17
2019-05-14T12:57:59.876Z,18.19
2019-05-14T13:00:26.661Z,18.20
2019-05-14T13:02:53.422Z,17.96
2019-05-14T13:05:20.103Z,17.94
2019-05-14T13:07:50.826Z,17.95
2019-05-14T13:10:15.757Z,17.95
2019-05-14T13:12:42.537Z,17.68
2019-05-14T13:15:09.541Z,17.49
2019-05-14T13:17:38.593Z,17.40
2019-05-14T13:20:05.709Z,17.41
2019-05-14T13:22:42.265Z,17.41
2019-05-14T13:25:01.198Z,17.32
2019-05-14T13:27:28.723Z,17.33
2019-05-14T13:29:55.625Z,17.11
2019-05-14T13:32:22.304Z,16.95
2019-05-14T13:34:49.080Z,16.95
2019-05-14T13:37:15.781Z,16.92
2019-05-14T13:39:42.629Z,16.90
2019-05-14T13:42:12.062Z,16.69
2019-05-14T13:44:39.048Z,16.69
2019-05-14T13:47:05.758Z,16.51
2019-05-14T13:49:32.526Z,16.51
2019-05-14T13:51:59.941Z,16.50
2019-05-14T13:54:31.548Z,16.68
2019-05-14T13:56:55.342Z,16.77
2019-05-14T13:59:22.063Z,16.78
2019-05-14T14:01:48.929Z,16.96
2019-05-14T14:04:18.147Z,17.01
2019-05-14T14:06:44.405Z,17.10
2019-05-14T14:09:12.340Z,17.10
2019-05-14T14:11:39.984Z,17.19
2019-05-14T14:14:08.798Z,17.17
2019-05-14T14:16:35.296Z,16.98
2019-05-14T14:19:03.878Z,17.06
2019-05-14T14:21:30.897Z,16.87
2019-05-14T14:23:59.251Z,16.98
2019-05-14T14:26:28.885Z,16.77
2019-05-14T14:28:59.928Z,16.77
2019-05-14T14:31:28.359Z,16.66
2019-05-14T14:33:54.997Z,16.54
2019-05-14T14:36:21.764Z,16.50
2019-05-14T14:38:49.525Z,16.58
2019-05-14T14:41:19.069Z,16.69
2019-05-14T14:43:45.340Z,16.81
2019-05-14T14:46:14.494Z,16.83
2019-05-14T14:48:57.923Z,16.82
2019-05-14T14:51:28.524Z,16.80
2019-05-14T14:54:02.570Z,16.75
2019-05-14T14:56:28.365Z,16.80
2019-05-14T14:58:55.939Z,16.86
2019-05-14T15:01:33.650Z,16.83
2019-05-14T15:04:01.461Z,16.89
2019-05-14T15:06:30.527Z,16.95
2019-05-14T15:08:58.847Z,17.09
2019-05-14T15:11:29.204Z,17.16
2019-05-14T15:16:20.526Z,17.20
2019-05-14T15:18:49.730Z,17.27
2019-05-14T15:21:18.926Z,17.35
2019-05-14T15:24:01.681Z,17.32
2019-05-14T15:28:39.442Z,17.13
2019-05-14T15:33:32.200Z,17.26
2019-05-14T15:35:59.960Z,17.22
2019-05-14T15:38:30.279Z,17.04
2019-05-14T15:40:55.030Z,16.79
2019-05-14T15:43:21.763Z,16.75
2019-05-14T15:45:48.479Z,16.60
2019-05-14T15:48:15.333Z,16.46
2019-05-14T15:50:42.049Z,16.29
2019-05-14T15:53:11.231Z,16.16
2019-05-14T15:55:38.497Z,16.04
2019-05-14T15:58:05.206Z,15.89
2019-05-14T16:00:31.913Z,15.61
2019-05-14T16:03:00.306Z,15.56
2019-05-14T16:05:28.505Z,15.62
2019-05-14T16:07:55.590Z,15.51
2019-05-14T16:10:22.369Z,15.40
2019-05-14T16:12:49.950Z,15.35
2019-05-14T16:15:18.837Z,15.21
2019-05-14T16:17:53.641Z,15.17
2019-05-14T16:20:14.760Z,15.18
2019-05-14T16:22:41.456Z,15.15
2019-05-14T16:25:08.982Z,15.10
2019-05-14T16:27:39.133Z,15.08
2019-05-14T16:30:06.089Z,15.12
2019-05-14T16:32:33.261Z,15.11
2019-05-14T16:35:00.044Z,15.09
2019-05-14T16:37:28.222Z,15.11
2019-05-14T16:39:55.123Z,15.14
2019-05-14T16:42:22.000Z,14.99
2019-05-14T16:44:48.691Z,14.85
2019-05-14T16:47:15.444Z,14.84
2019-05-14T16:49:42.307Z,14.88
2019-05-14T16:52:09.366Z,14.94
2019-05-14T16:54:36.236Z,14.88
2019-05-14T16:57:02.979Z,14.79
2019-05-14T16:59:29.827Z,14.74
2019-05-14T17:01:58.494Z,14.77
2019-05-14T17:04:25.362Z,14.84
2019-05-14T17:06:52.170Z,14.80
2019-05-14T17:09:18.895Z,14.83
2019-05-14T17:20:08.792Z,14.67
2019-05-14T17:22:35.825Z,14.69
2019-05-14T17:25:03.458Z,14.68
2019-05-14T17:27:30.158Z,14.68
2019-05-14T17:29:58.956Z,14.69
2019-05-14T17:32:24.702Z,14.65
2019-05-14T17:34:51.514Z,14.69
2019-05-14T17:37:19.086Z,14.66
2019-05-14T17:39:46.009Z,14.64
2019-05-14T17:42:12.872Z,14.66
2019-05-14T17:44:39.727Z,14.63
2019-05-14T17:47:06.424Z,14.67
2019-05-14T17:49:33.208Z,14.62
2019-05-14T17:52:00.037Z,14.63
2019-05-14T17:54:28.456Z,14.63
2019-05-14T17:56:55.519Z,14.67
2019-05-14T17:59:22.320Z,14.74
2019-05-14T18:01:49.303Z,14.77
2019-05-14T18:04:18.316Z,14.75
2019-05-14T18:06:43.983Z,14.80
2019-05-14T18:09:11.024Z,14.83
2019-05-14T18:11:39.922Z,14.81
2019-05-14T18:14:11.635Z,14.77
2019-05-14T18:16:34.299Z,14.79
2019-05-14T18:19:01.009Z,14.85
2019-05-14T18:21:28.515Z,14.79
2019-05-14T18:23:55.508Z,14.78
2019-05-14T18:26:22.284Z,14.84
2019-05-14T18:28:49.009Z,14.74
2019-05-14T18:31:15.787Z,14.71
2019-05-14T18:33:42.592Z,14.74
2019-05-14T18:36:08.552Z,14.82
2019-05-14T18:38:35.286Z,14.72
2019-05-14T18:41:01.979Z,14.70
2019-05-14T18:43:29.027Z,14.74
2019-05-14T18:45:55.962Z,14.77
2019-05-14T18:48:22.641Z,14.76
2019-05-14T18:50:49.632Z,14.68
2019-05-14T18:53:18.927Z,14.62
2019-05-14T18:55:44.921Z,14.67
2019-05-14T18:58:11.892Z,14.58
2019-05-14T19:00:38.975Z,14.48
2019-05-14T19:03:08.300Z,14.45
2019-05-14T19:05:34.625Z,14.35
2019-05-14T19:08:01.383Z,14.23
2019-05-14T19:10:28.197Z,14.13
2019-05-14T19:12:55.110Z,14.07
2019-05-14T19:15:21.844Z,14.04
2019-05-14T19:17:49.021Z,13.96
2019-05-14T19:20:15.934Z,14.08
2019-05-14T19:22:42.731Z,14.09
2019-05-14T19:25:09.886Z,14.00
2019-05-14T19:27:37.973Z,14.04
2019-05-14T19:32:31.581Z,14.10
2019-05-14T19:34:58.002Z,14.05
2019-05-14T19:37:24.708Z,14.07
2019-05-14T19:39:51.534Z,14.04
2019-05-14T19:42:18.449Z,13.96
2019-05-14T19:44:45.200Z,13.89
2019-05-14T19:47:12.107Z,13.86
2019-05-14T19:49:38.890Z,13.81
2019-05-14T19:52:05.635Z,13.75
2019-05-14T19:54:32.328Z,13.71
2019-05-14T19:57:00.890Z,13.73
2019-05-14T19:59:28.764Z,13.66
2019-05-14T20:04:21.520Z,13.67
2019-05-14T20:06:49.315Z,13.55
2019-05-14T20:09:17.894Z,13.57
2019-05-14T20:11:44.786Z,13.60
2019-05-14T20:14:11.521Z,13.45
2019-05-14T20:16:39.211Z,13.42
2019-05-14T20:19:08.694Z,13.34
2019-05-14T20:21:34.941Z,13.37
2019-05-14T20:24:01.602Z,13.27
2019-05-14T20:26:28.350Z,13.30
2019-05-14T20:28:55.141Z,13.27
2019-05-14T20:31:21.892Z,13.21
2019-05-14T20:33:48.727Z,13.25
2019-05-14T20:36:15.678Z,13.25
2019-05-14T20:38:42.543Z,13.39
2019-05-14T20:41:09.346Z,13.51
2019-05-14T20:43:38.302Z,13.56
2019-05-14T20:46:04.737Z,13.68
2019-05-14T20:48:31.428Z,13.68
2019-05-14T20:50:58.558Z,13.71
2019-05-14T20:53:25.701Z,13.67
2019-05-14T20:55:52.378Z,13.62
2019-05-14T20:58:20.011Z,13.58
2019-05-14T21:00:48.476Z,13.55
2019-05-14T21:03:15.469Z,13.55
2019-05-14T21:05:42.728Z,13.53
2019-05-14T21:08:13.472Z,13.49
2019-05-14T21:10:39.602Z,13.39
2019-05-14T21:13:08.679Z,13.02
2019-05-14T21:15:35.699Z,13.33
2019-05-14T21:18:02.419Z,13.36
2019-05-14T21:20:29.211Z,13.41
2019-05-14T21:22:58.518Z,13.40
2019-05-14T21:25:25.566Z,13.37
2019-05-14T21:27:52.401Z,13.38
2019-05-14T21:42:29.286Z,13.21
2019-05-14T21:44:58.391Z,13.46
2019-05-14T21:47:24.944Z,13.52
2019-05-14T21:49:51.719Z,13.69
2019-05-14T21:52:18.442Z,13.83
2019-05-14T21:54:47.941Z,13.78
2019-05-14T21:57:14.082Z,13.87
2019-05-14T21:59:40.863Z,13.88
2019-05-14T22:02:08.679Z,13.90
2019-05-14T22:04:35.610Z,13.93
2019-05-14T22:07:02.359Z,13.88
2019-05-14T22:09:29.066Z,13.90
2019-05-14T22:11:58.157Z,13.92
2019-05-14T22:14:24.720Z,13.90
2019-05-14T22:16:51.605Z,13.95
2019-05-14T22:19:19.034Z,13.89
2019-05-14T22:21:46.050Z,13.88
2019-05-14T22:24:11.884Z,13.89
2019-05-14T22:26:38.966Z,13.89
2019-05-14T22:29:05.546Z,13.81
2019-05-14T22:31:32.365Z,13.86
2019-05-14T22:33:59.044Z,13.81
2019-05-14T22:36:25.821Z,13.84
2019-05-14T22:38:52.485Z,13.77
2019-05-14T22:41:19.224Z,13.77
2019-05-14T22:43:45.907Z,13.75
2019-05-14T22:46:12.622Z,13.74
2019-05-14T22:48:39.445Z,13.69
2019-05-14T22:51:08.520Z,13.65
2019-05-14T22:53:34.678Z,13.57
2019-05-14T22:56:02.428Z,13.61
2019-05-14T22:58:30.229Z,13.55
2019-05-14T23:01:13.631Z,13.51
2019-05-14T23:03:28.840Z,13.50
2019-05-14T23:05:58.096Z,13.45
2019-05-14T23:08:24.468Z,13.45
2019-05-14T23:10:51.265Z,13.44
2019-05-14T23:13:18.651Z,13.39
2019-05-14T23:15:47.991Z,13.39
2019-05-14T23:18:14.295Z,13.41
2019-05-14T23:20:41.059Z,13.36
2019-05-14T23:23:09.246Z,13.34
2019-05-14T23:25:38.599Z,13.36
2019-05-14T23:28:04.922Z,13.30
2019-05-14T23:35:24.538Z,12.96
2019-05-14T23:37:51.422Z,13.06
2019-05-14T23:40:18.184Z,13.17
2019-05-14T23:42:45.086Z,13.35
2019-05-14T23:45:11.919Z,13.45
2019-05-14T23:47:38.663Z,13.53
2019-05-14T23:50:07.934Z,13.55
2019-05-14T23:52:34.102Z,13.63
2019-05-14T23:55:00.861Z,13.77
2019-05-14T23:57:28.801Z,13.80
2019-05-14T23:59:57.830Z,13.88
